This is the latest recevied weather packets stored in our database for station/object N5ATR. If no packets are shown the sender has not sent any weather packets the latest 1 day(s).
| Time | Temp. | Humidity | Pressure | Rain* | Wind** | Luminosity | Snow |
|---|---|---|---|---|---|---|---|
| 1778015007 | 12.78° C | 58% | 1010 hPa | 0 mm | 3.58 m/s, 246° | 213 W/m² | - |
| 1778014704 | 12.78° C | 60% | 1010.3 hPa | 0 mm | 3.13 m/s, 262° | 227 W/m² | - |
| 1778014402 | 13.89° C | 58% | 1010.3 hPa | 0 mm | 3.13 m/s, 271° | 569 W/m² | - |
| 1778014098 | 12.22° C | 62% | 1010.8 hPa | 0 mm | 1.79 m/s, 211° | 297 W/m² | - |
| 1778013797 | 11.67° C | 65% | 1010.8 hPa | 0 mm | 1.79 m/s, 289° | 147 W/m² | - |
| 1778013494 | 12.22° C | 63% | 1010.8 hPa | 0 mm | 4.02 m/s, 276° | 191 W/m² | - |
| 1778013190 | 12.78° C | 61% | 1010.8 hPa | 0 mm | 2.68 m/s, 267° | 303 W/m² | - |
| 1778012886 | 12.78° C | 61% | 1011.1 hPa | 0 mm | 2.68 m/s, 313° | 248 W/m² | - |
| 1778012583 | 12.78° C | 61% | 1010.9 hPa | 0 mm | 3.13 m/s, 218° | 242 W/m² | - |
| 1778012279 | 12.78° C | 63% | 1010.7 hPa | 0 mm | 1.79 m/s, 156° | 325 W/m² | - |
| 1778011977 | 13.33° C | 59% | 1010.8 hPa | 0 mm | 2.68 m/s, 262° | 337 W/m² | - |
| 1778011675 | 12.78° C | 63% | 1010.6 hPa | 0 mm | 3.13 m/s, 125° | 267 W/m² | - |
| 1778011372 | 14.44° C | 59% | 1010.8 hPa | 0 mm | 3.13 m/s, 246° | 393 W/m² | - |
| 1778011067 | 13.89° C | 62% | 1010.8 hPa | 0 mm | 3.13 m/s, 272° | 1072 W/m² | - |
| 1778010765 | 12.78° C | 64% | 1010.7 hPa | 0 mm | 4.02 m/s, 230° | 294 W/m² | - |
| 1778010462 | 12.22° C | 64% | 1010.8 hPa | 0 mm | 3.58 m/s, 250° | 997 W/m² | - |
| 1778010158 | 12.78° C | 67% | 1010.6 hPa | 0 mm | 4.02 m/s, 232° | 817 W/m² | - |
| 1778009854 | 11.67° C | 74% | 1010.9 hPa | 0 mm | 3.58 m/s, 280° | 810 W/m² | - |
| 1778009552 | 11.11° C | 80% | 1010.8 hPa | 0 mm | 2.68 m/s, 264° | 701 W/m² | - |
| 1778009250 | 11.11° C | 86% | 1010.9 hPa | 0 mm | 2.24 m/s, 290° | 871 W/m² | - |
| 1778008947 | 10° C | 89% | 1011.1 hPa | 0 mm | 1.79 m/s, 239° | 849 W/m² | - |
| 1778008645 | 10° C | 91% | 1010.9 hPa | 1.27 mm | 2.24 m/s, 235° | 791 W/m² | - |
| 1778008344 | 8.89° C | 90% | 1011.1 hPa | 1.27 mm | 1.34 m/s, 217° | 478 W/m² | - |
| 1778008040 | 9.44° C | 83% | 1011.3 hPa | 0 mm | 4.47 m/s, 234° | 169 W/m² | - |
| 1778007739 | 11.11° C | 74% | 1010.9 hPa | 0 mm | 3.58 m/s, 152° | 138 W/m² | - |
* Rain latest hour (hover to see other rain measurements)
** Current wind speed in m/s (hover to see current wind gust speed)